CYVV

Wiarton Airport

Wiarton, , Canada
METAR CYVV 201600Z 14005KT 15SM BKN024 BKN080 BKN250 24/18 A3007 RMK SC6AS1CI1 CI TR WND ESTD SLP185 DENSITY ALT 1800FT
Observed Flight Rules
Aug-20 @ 16:00 UTC (25 minutes ago) Marginal Visual Flight Rules
Wind Visibility Clouds
140° at 5 knots 15 miles
  • Broken at 2,400' AGL
  • Broken at 8,000' AGL
  • Broken at 25,000' AGL
Temperatures Readings
Current 24°C / 75°F
Dewpoint 18°C / 64°F
Humidity 69%
Altimeter 30.07" Hg
Pressure 1018.5 hPa
Elevation 222
METAR CYVV 201600Z 14005KT 15SM BKN024 BKN080 BKN250 24/18 A3007 RMK SC6AS1CI1 CI TR WND ESTD SLP185 DENSITY ALT 1800FT
Observed Flight Rules
Aug-20 @ 16:00 UTC
(25 minutes ago)
MVFR
Wind Visibility
140° at 5 knots 15 miles
Clouds
  • Broken at 2,400' AGL
  • Broken at 8,000' AGL
  • Broken at 25,000' AGL
Temperature Dewpoint
24°C / 75°F 18°C / 64°F
Humidity Altimeter Pressure
69% 30.07" Hg 1018.5 hPa